createdAt,value
2019-05-25T00:00:27.871Z,13.95
2019-05-25T00:02:59.863Z,13.84
2019-05-25T00:05:31.829Z,13.79
2019-05-25T00:08:03.823Z,13.72
2019-05-25T00:10:35.798Z,13.65
2019-05-25T00:13:07.839Z,13.67
2019-05-25T00:15:39.847Z,13.72
2019-05-25T00:18:11.855Z,13.65
2019-05-25T00:20:43.890Z,13.78
2019-05-25T00:23:15.826Z,13.73
2019-05-25T00:25:47.810Z,13.77
2019-05-25T00:28:19.782Z,13.63
2019-05-25T00:30:51.722Z,13.68
2019-05-25T00:33:23.733Z,13.65
2019-05-25T00:35:55.798Z,13.26
2019-05-25T00:38:27.742Z,13.26
2019-05-25T00:40:59.730Z,13.28
2019-05-25T00:43:31.702Z,13.31
2019-05-25T00:46:03.686Z,13.32
2019-05-25T00:48:35.643Z,13.35
2019-05-25T00:51:07.676Z,13.33
2019-05-25T00:53:39.669Z,13.48
2019-05-25T00:56:11.703Z,13.47
2019-05-25T00:58:43.677Z,13.34
2019-05-25T01:01:15.724Z,13.26
2019-05-25T01:03:47.675Z,13.29
2019-05-25T01:06:19.707Z,13.41
2019-05-25T01:08:51.713Z,13.26
2019-05-25T01:11:23.726Z,13.43
2019-05-25T01:13:55.699Z,13.50
2019-05-25T01:16:27.694Z,13.42
2019-05-25T01:18:59.685Z,13.32
2019-05-25T01:21:32.464Z,13.19
2019-05-25T01:24:04.472Z,13.19
2019-05-25T01:26:36.460Z,13.29
2019-05-25T01:29:08.408Z,13.35
2019-05-25T01:31:40.478Z,13.31
2019-05-25T01:34:12.462Z,13.31
2019-05-25T01:36:44.554Z,13.31
2019-05-25T01:39:16.526Z,13.34
2019-05-25T01:41:48.504Z,13.35
2019-05-25T01:44:20.483Z,13.44
2019-05-25T01:46:52.462Z,13.36
2019-05-25T01:49:24.448Z,13.31
2019-05-25T01:51:56.414Z,13.44
2019-05-25T01:54:28.374Z,13.43
2019-05-25T01:57:00.353Z,13.43
2019-05-25T01:59:32.348Z,13.45
2019-05-25T02:02:04.371Z,13.37
2019-05-25T02:04:36.335Z,13.37
2019-05-25T02:07:08.308Z,13.37
2019-05-25T02:09:40.321Z,13.35
2019-05-25T02:12:12.352Z,13.36
2019-05-25T02:14:44.324Z,13.42
2019-05-25T02:17:16.329Z,13.34
2019-05-25T02:19:48.425Z,13.30
2019-05-25T02:22:20.421Z,13.27
2019-05-25T02:24:52.407Z,13.25
2019-05-25T02:27:24.411Z,13.20
2019-05-25T02:29:56.380Z,13.11
2019-05-25T02:32:28.379Z,13.13
2019-05-25T02:35:00.369Z,13.13
2019-05-25T02:37:32.368Z,13.08
2019-05-25T02:40:04.494Z,13.02
2019-05-25T02:42:36.500Z,13.03
2019-05-25T02:45:09.232Z,12.85
2019-05-25T02:47:41.247Z,12.88
2019-05-25T02:50:13.226Z,12.89
2019-05-25T02:52:45.261Z,12.94
2019-05-25T02:55:32.503Z,13.02
2019-05-25T02:57:51.141Z,13.07
2019-05-25T03:00:31.059Z,13.00
2019-05-25T03:03:03.448Z,13.05
2019-05-25T03:05:35.438Z,13.07
2019-05-25T03:08:07.381Z,13.00
2019-05-25T03:10:39.489Z,12.95
2019-05-25T03:13:11.451Z,12.86
2019-05-25T03:15:43.460Z,12.89
2019-05-25T03:18:15.427Z,12.98
2019-05-25T03:20:47.400Z,13.03
2019-05-25T03:23:19.370Z,12.96
2019-05-25T03:25:51.443Z,12.97
2019-05-25T03:28:23.398Z,12.99
2019-05-25T03:30:55.375Z,12.96
2019-05-25T03:33:27.333Z,12.89
2019-05-25T03:35:59.349Z,12.90
2019-05-25T03:38:31.300Z,12.95
2019-05-25T03:41:03.305Z,12.97
2019-05-25T03:43:35.300Z,13.01
2019-05-25T03:46:07.356Z,13.01
2019-05-25T03:48:39.349Z,13.12
2019-05-25T03:51:11.336Z,13.08
2019-05-25T03:53:43.303Z,12.92
2019-05-25T03:56:15.301Z,12.95
2019-05-25T03:58:47.243Z,12.99
2019-05-25T04:01:19.252Z,13.01
2019-05-25T04:03:51.235Z,13.05
2019-05-25T04:06:23.314Z,13.12
2019-05-25T04:08:55.349Z,13.15
2019-05-25T04:11:27.368Z,13.18
2019-05-25T04:13:59.364Z,13.06
2019-05-25T04:16:31.406Z,13.05
2019-05-25T04:19:03.485Z,13.08
2019-05-25T04:21:35.494Z,13.05
2019-05-25T04:24:11.461Z,13.13
2019-05-25T04:26:43.481Z,13.27
2019-05-25T04:29:15.462Z,13.22
2019-05-25T04:31:47.441Z,13.18
2019-05-25T04:34:19.438Z,13.16
2019-05-25T04:36:51.659Z,13.12
2019-05-25T04:39:23.649Z,13.18
2019-05-25T04:41:55.616Z,13.38
2019-05-25T04:44:27.609Z,13.31
2019-05-25T04:46:59.618Z,13.43
2019-05-25T04:49:31.573Z,13.43
2019-05-25T04:52:03.551Z,13.36
2019-05-25T04:54:35.555Z,13.48
2019-05-25T04:57:07.629Z,13.59
2019-05-25T04:59:39.775Z,13.70
2019-05-25T05:02:11.781Z,13.84
2019-05-25T05:04:43.829Z,14.17
2019-05-25T05:07:15.829Z,14.19
2019-05-25T05:10:01.541Z,14.47
2019-05-25T05:12:21.675Z,14.51
2019-05-25T05:14:56.458Z,14.60
2019-05-25T05:17:27.821Z,14.82
2019-05-25T05:19:59.928Z,15.21
2019-05-25T05:22:31.931Z,15.59
2019-05-25T05:25:04.715Z,15.59
2019-05-25T05:27:36.714Z,15.66
2019-05-25T05:30:08.857Z,15.58
2019-05-25T05:32:40.830Z,15.60
2019-05-25T05:35:12.985Z,15.61
2019-05-25T05:37:45.375Z,15.71
2019-05-25T05:40:17.370Z,15.63
2019-05-25T05:42:50.240Z,15.57
2019-05-25T05:45:22.202Z,15.41
2019-05-25T05:47:54.646Z,15.54
2019-05-25T05:50:26.686Z,15.63
2019-05-25T05:53:01.171Z,15.74
2019-05-25T05:55:33.158Z,15.83
2019-05-25T05:58:05.251Z,15.91
2019-05-25T06:00:37.446Z,16.07
2019-05-25T06:03:09.439Z,16.13
2019-05-25T06:05:41.448Z,16.18
2019-05-25T06:08:13.441Z,16.26
2019-05-25T06:10:45.474Z,16.40
2019-05-25T06:13:17.455Z,16.56
2019-05-25T06:15:49.474Z,16.59
2019-05-25T06:18:21.444Z,16.63
2019-05-25T06:20:53.464Z,16.73
2019-05-25T06:23:25.448Z,16.73
2019-05-25T06:25:57.540Z,16.77
2019-05-25T06:28:29.584Z,16.91
2019-05-25T06:31:01.678Z,16.96
2019-05-25T06:33:33.690Z,16.99
2019-05-25T06:36:05.760Z,17.25
2019-05-25T06:38:37.743Z,17.46
2019-05-25T06:41:09.808Z,17.75
2019-05-25T06:43:41.871Z,18.08
2019-05-25T06:46:13.945Z,18.27
2019-05-25T06:48:45.931Z,18.44
2019-05-25T06:51:17.987Z,18.66
2019-05-25T06:53:49.990Z,18.90
2019-05-25T06:56:21.975Z,19.35
2019-05-25T06:58:53.975Z,19.95
2019-05-25T07:01:26.010Z,20.52
2019-05-25T07:03:57.964Z,21.12
2019-05-25T07:06:29.995Z,21.73
2019-05-25T07:09:01.983Z,22.49
2019-05-25T07:11:34.028Z,22.82
2019-05-25T07:14:06.063Z,23.46
2019-05-25T07:16:38.173Z,24.04
2019-05-25T07:19:10.277Z,24.35
2019-05-25T07:21:42.280Z,24.86
2019-05-25T07:24:14.275Z,25.14
2019-05-25T07:26:46.288Z,25.31
2019-05-25T07:29:18.292Z,25.40
2019-05-25T07:31:50.357Z,25.73
2019-05-25T07:34:22.292Z,25.81
2019-05-25T07:36:54.326Z,26.02
2019-05-25T07:39:26.320Z,26.26
2019-05-25T07:41:58.311Z,26.59
2019-05-25T07:44:30.340Z,26.69
2019-05-25T07:47:02.338Z,26.66
2019-05-25T07:49:34.318Z,26.74
2019-05-25T07:52:06.351Z,27.19
2019-05-25T07:54:38.323Z,27.52
2019-05-25T07:57:10.340Z,27.71
2019-05-25T07:59:42.310Z,27.85
2019-05-25T08:02:14.318Z,27.79
2019-05-25T08:04:46.315Z,27.99
2019-05-25T08:07:18.563Z,27.92
2019-05-25T08:09:50.570Z,28.25
2019-05-25T08:12:22.567Z,28.05
2019-05-25T08:14:56.435Z,27.43
2019-05-25T08:17:28.441Z,27.36
2019-05-25T08:20:00.460Z,27.58
2019-05-25T08:22:32.560Z,27.44
2019-05-25T08:25:04.954Z,27.36
2019-05-25T08:27:36.995Z,27.42
2019-05-25T08:30:09.024Z,27.07
2019-05-25T08:32:51.888Z,27.22
2019-05-25T08:35:29.218Z,27.10
2019-05-25T08:38:09.883Z,27.06
2019-05-25T08:40:41.890Z,27.14
2019-05-25T08:43:13.976Z,27.13
2019-05-25T08:45:46.046Z,27.13
2019-05-25T08:48:18.120Z,27.04
2019-05-25T08:50:50.087Z,27.04
2019-05-25T08:53:39.576Z,26.98
2019-05-25T08:55:56.133Z,26.89
2019-05-25T08:58:28.141Z,26.90
2019-05-25T09:01:00.110Z,26.82
2019-05-25T09:03:32.166Z,26.99
2019-05-25T09:06:04.140Z,26.96
2019-05-25T09:08:36.188Z,27.11
2019-05-25T09:11:08.162Z,27.04
2019-05-25T09:13:40.215Z,26.92
2019-05-25T09:16:12.246Z,26.92
2019-05-25T09:18:44.226Z,26.98
2019-05-25T09:21:16.237Z,27.08
2019-05-25T09:23:48.930Z,27.30
2019-05-25T09:26:21.068Z,27.25
2019-05-25T09:29:04.049Z,27.23
2019-05-25T09:31:27.153Z,27.20
2019-05-25T09:33:59.164Z,27.24
2019-05-25T09:36:31.165Z,27.02
2019-05-25T09:39:05.286Z,27.11
2019-05-25T09:41:37.406Z,27.04
2019-05-25T09:44:09.472Z,27.16
2019-05-25T09:46:41.469Z,27.33
2019-05-25T09:49:13.669Z,27.57
2019-05-25T09:51:48.490Z,27.52
2019-05-25T09:54:19.592Z,27.62
2019-05-25T09:56:51.649Z,27.65
2019-05-25T09:59:23.738Z,27.82
2019-05-25T10:01:55.743Z,27.82
2019-05-25T10:04:27.782Z,27.74
2019-05-25T10:06:59.801Z,27.67
2019-05-25T10:09:31.807Z,27.62
2019-05-25T10:12:03.934Z,27.43
2019-05-25T10:14:35.942Z,27.35
2019-05-25T10:17:08.049Z,27.04
2019-05-25T10:19:39.977Z,26.88
2019-05-25T10:22:12.000Z,26.56
2019-05-25T10:24:44.000Z,26.50
2019-05-25T10:27:16.041Z,26.21
2019-05-25T10:29:48.049Z,26.09
2019-05-25T10:32:20.078Z,26.04
2019-05-25T10:34:52.058Z,25.93
2019-05-25T10:37:24.078Z,25.79
2019-05-25T10:39:56.113Z,25.85
2019-05-25T10:42:28.157Z,25.77
2019-05-25T10:45:00.158Z,25.76
2019-05-25T10:47:32.543Z,25.85
2019-05-25T10:50:05.167Z,25.93
2019-05-25T10:52:37.197Z,25.94
2019-05-25T10:55:11.427Z,25.98
2019-05-25T10:57:43.499Z,25.87
2019-05-25T11:00:17.288Z,25.79
2019-05-25T11:02:49.347Z,25.78
2019-05-25T11:05:21.349Z,25.55
2019-05-25T11:07:53.356Z,25.33
2019-05-25T11:10:25.373Z,25.37
2019-05-25T11:12:57.386Z,25.13
2019-05-25T11:15:29.374Z,24.92
2019-05-25T11:18:01.453Z,24.86
2019-05-25T11:20:33.414Z,24.87
2019-05-25T11:23:05.459Z,24.88
2019-05-25T11:25:37.459Z,24.79
2019-05-25T11:28:09.481Z,24.62
2019-05-25T11:30:41.442Z,24.35
2019-05-25T11:33:13.476Z,24.26
2019-05-25T11:35:45.467Z,24.33
2019-05-25T11:38:17.493Z,24.17
2019-05-25T11:40:49.695Z,24.11
2019-05-25T11:43:21.784Z,24.25
2019-05-25T11:45:53.830Z,24.34
2019-05-25T11:48:25.842Z,24.42
2019-05-25T11:50:57.866Z,24.52
2019-05-25T11:53:29.865Z,24.44
2019-05-25T11:56:01.876Z,24.28
2019-05-25T11:58:46.578Z,24.30
2019-05-25T12:01:07.855Z,24.33
2019-05-25T12:03:39.840Z,24.22
2019-05-25T12:06:11.889Z,24.28
2019-05-25T12:08:43.897Z,24.25
2019-05-25T12:11:15.895Z,24.12
2019-05-25T12:13:47.921Z,24.11
2019-05-25T12:16:19.946Z,24.25
2019-05-25T12:18:51.947Z,23.92
2019-05-25T12:21:23.938Z,23.98
2019-05-25T12:23:55.931Z,24.08
2019-05-25T12:26:27.985Z,24.10
2019-05-25T12:28:59.997Z,24.03
2019-05-25T12:31:32.026Z,24.08
2019-05-25T12:34:04.161Z,24.17
2019-05-25T12:36:36.239Z,24.01
2019-05-25T12:39:08.262Z,23.94
2019-05-25T12:41:40.270Z,24.13
2019-05-25T12:44:12.283Z,24.17
2019-05-25T12:46:44.378Z,23.86
2019-05-25T12:49:16.416Z,23.86
2019-05-25T12:51:48.448Z,23.99
2019-05-25T12:54:20.431Z,24.05
2019-05-25T12:56:52.445Z,24.09
2019-05-25T12:59:24.486Z,24.17
2019-05-25T13:01:56.498Z,24.46
2019-05-25T13:04:28.481Z,24.47
2019-05-25T13:07:00.481Z,24.55
2019-05-25T13:09:32.509Z,24.62
2019-05-25T13:12:04.510Z,24.79
2019-05-25T13:14:36.488Z,24.94
2019-05-25T13:17:08.558Z,25.01
2019-05-25T13:19:41.408Z,24.91
2019-05-25T13:22:13.395Z,24.88
2019-05-25T13:24:45.454Z,24.86
2019-05-25T13:27:17.504Z,24.97
2019-05-25T13:29:49.515Z,25.08
2019-05-25T13:32:21.574Z,25.15
2019-05-25T13:34:53.600Z,25.15
2019-05-25T13:37:25.771Z,24.98
2019-05-25T13:39:57.776Z,24.94
2019-05-25T13:42:29.840Z,24.82
2019-05-25T13:45:01.886Z,24.73
2019-05-25T13:47:33.961Z,24.73
2019-05-25T13:50:06.681Z,24.80
2019-05-25T13:52:38.862Z,24.82
2019-05-25T13:55:11.099Z,24.85
2019-05-25T13:57:43.323Z,25.06
2019-05-25T14:00:15.339Z,24.91
2019-05-25T14:02:47.378Z,24.84
2019-05-25T14:05:19.420Z,24.48
2019-05-25T14:07:51.427Z,24.25
2019-05-25T14:10:23.465Z,23.98
2019-05-25T14:12:55.471Z,23.89
2019-05-25T14:15:27.478Z,23.75
2019-05-25T14:17:59.474Z,23.46
2019-05-25T14:20:31.551Z,23.33
2019-05-25T14:23:03.571Z,23.35
2019-05-25T14:25:35.690Z,22.77
2019-05-25T14:28:07.721Z,22.17
2019-05-25T14:30:39.797Z,21.39
2019-05-25T14:33:11.888Z,20.90
2019-05-25T14:35:44.039Z,20.36
2019-05-25T14:38:16.019Z,19.54
2019-05-25T14:40:48.171Z,18.50
2019-05-25T14:43:20.256Z,17.45
2019-05-25T14:45:53.401Z,16.47
2019-05-25T14:48:25.782Z,15.76
2019-05-25T14:50:57.849Z,15.24
2019-05-25T14:53:30.007Z,15.03
2019-05-25T14:56:02.033Z,14.76
2019-05-25T14:58:34.073Z,14.48
2019-05-25T15:01:06.147Z,14.57
2019-05-25T15:03:38.252Z,14.47
2019-05-25T15:06:10.311Z,14.45
2019-05-25T15:08:42.346Z,14.47
2019-05-25T15:11:14.419Z,14.69
2019-05-25T15:13:46.465Z,14.94
2019-05-25T15:16:18.564Z,15.14
2019-05-25T15:18:50.625Z,15.08
2019-05-25T15:21:22.757Z,14.70
2019-05-25T15:23:54.851Z,14.48
2019-05-25T15:26:26.867Z,14.33
2019-05-25T15:28:58.933Z,14.36
2019-05-25T15:31:31.023Z,14.49
2019-05-25T15:34:03.351Z,14.45
2019-05-25T15:36:35.769Z,14.44
2019-05-25T15:39:07.837Z,14.41
2019-05-25T15:41:39.923Z,14.27
2019-05-25T15:44:11.952Z,14.09
2019-05-25T15:46:44.111Z,14.04
2019-05-25T15:49:16.093Z,14.24
2019-05-25T15:51:48.140Z,14.32
2019-05-25T15:54:20.148Z,14.52
2019-05-25T15:56:52.191Z,14.41
2019-05-25T15:59:24.219Z,14.40
2019-05-25T16:01:56.284Z,14.47
2019-05-25T16:04:28.507Z,14.42
2019-05-25T16:07:00.537Z,14.38
2019-05-25T16:09:32.574Z,14.37
2019-05-25T16:12:04.711Z,14.39
2019-05-25T16:14:36.789Z,14.50
2019-05-25T16:17:08.822Z,14.64
2019-05-25T16:19:40.818Z,14.65
2019-05-25T16:22:12.913Z,14.54
2019-05-25T16:24:45.056Z,14.58
2019-05-25T16:27:17.332Z,14.63
2019-05-25T16:29:49.382Z,14.70
2019-05-25T16:32:21.467Z,14.67
2019-05-25T16:34:53.586Z,14.73
2019-05-25T16:37:25.748Z,14.73
2019-05-25T16:39:57.865Z,14.72
2019-05-25T16:42:29.931Z,14.73
2019-05-25T16:45:05.539Z,14.68
2019-05-25T16:47:35.924Z,14.62
2019-05-25T16:50:08.562Z,14.60
2019-05-25T16:52:40.911Z,14.66
2019-05-25T16:55:13.270Z,14.62
2019-05-25T16:57:45.305Z,14.66
2019-05-25T17:00:27.268Z,14.62
2019-05-25T17:02:59.697Z,14.46
2019-05-25T17:05:31.779Z,14.28
2019-05-25T17:08:03.863Z,14.20
2019-05-25T17:10:35.937Z,14.20
2019-05-25T17:13:08.000Z,14.11
2019-05-25T17:15:40.076Z,14.20
2019-05-25T17:18:12.109Z,14.15
2019-05-25T17:20:44.189Z,14.23
2019-05-25T17:23:16.188Z,14.29
2019-05-25T17:25:48.326Z,14.30
2019-05-25T17:28:20.472Z,14.23
2019-05-25T17:30:52.526Z,14.27
2019-05-25T17:33:44.531Z,14.41
2019-05-25T17:36:04.447Z,14.50
2019-05-25T17:38:36.482Z,14.45
2019-05-25T17:41:08.515Z,14.42
2019-05-25T17:43:40.569Z,14.48
2019-05-25T17:46:12.680Z,14.58
2019-05-25T17:48:44.741Z,14.53
2019-05-25T17:51:16.894Z,14.58
2019-05-25T17:53:48.943Z,14.67
2019-05-25T17:56:20.985Z,14.75
2019-05-25T17:58:53.020Z,14.83
2019-05-25T18:01:25.105Z,14.84
2019-05-25T18:04:06.711Z,14.84
2019-05-25T18:06:31.205Z,14.91
2019-05-25T18:09:05.910Z,14.99
2019-05-25T18:11:38.136Z,14.98
2019-05-25T18:14:10.200Z,15.00
2019-05-25T18:16:42.349Z,14.93
2019-05-25T18:19:14.384Z,14.97
2019-05-25T18:21:46.500Z,14.97
2019-05-25T18:24:18.564Z,14.97
2019-05-25T18:26:50.640Z,14.79
2019-05-25T18:29:23.872Z,14.75
2019-05-25T18:31:56.122Z,14.79
2019-05-25T18:34:28.222Z,14.73
2019-05-25T18:37:00.372Z,14.73
2019-05-25T18:39:32.417Z,14.77
2019-05-25T18:42:04.533Z,14.81
2019-05-25T18:44:36.565Z,14.91
2019-05-25T18:47:08.648Z,14.91
2019-05-25T18:49:40.773Z,14.91
2019-05-25T18:52:12.836Z,14.97
2019-05-25T18:54:44.877Z,14.96
2019-05-25T18:57:16.935Z,14.92
2019-05-25T18:59:49.009Z,14.96
2019-05-25T19:02:21.033Z,14.95
2019-05-25T19:04:59.507Z,14.87
2019-05-25T19:07:27.122Z,14.85
2019-05-25T19:09:59.160Z,14.81
2019-05-25T19:12:31.235Z,14.79
2019-05-25T19:15:05.263Z,14.78
2019-05-25T19:17:37.340Z,14.81
2019-05-25T19:20:09.631Z,14.77
2019-05-25T19:22:41.752Z,14.75
2019-05-25T19:25:14.952Z,14.71
2019-05-25T19:27:47.140Z,14.68
2019-05-25T19:30:19.523Z,14.70
2019-05-25T19:32:51.607Z,14.68
2019-05-25T19:35:23.748Z,14.65
2019-05-25T19:37:55.865Z,14.64
2019-05-25T19:40:28.069Z,14.62
2019-05-25T19:43:00.051Z,14.57
2019-05-25T19:45:33.006Z,14.60
2019-05-25T19:48:05.259Z,14.48
2019-05-25T19:50:37.342Z,14.45
2019-05-25T19:53:11.524Z,14.37
2019-05-25T19:55:43.592Z,14.34
2019-05-25T19:58:15.668Z,14.35
2019-05-25T20:00:47.695Z,14.36
2019-05-25T20:03:19.727Z,14.35
2019-05-25T20:05:51.821Z,14.26
2019-05-25T20:08:23.853Z,14.19
2019-05-25T20:10:56.026Z,14.16
2019-05-25T20:13:28.083Z,14.14
2019-05-25T20:16:00.218Z,14.10
2019-05-25T20:18:32.308Z,14.09
2019-05-25T20:21:04.449Z,14.14
2019-05-25T20:23:36.672Z,14.08
2019-05-25T20:26:09.194Z,14.07
2019-05-25T20:28:41.263Z,14.10
2019-05-25T20:31:13.393Z,14.10
2019-05-25T20:33:45.481Z,14.17
2019-05-25T20:36:17.707Z,14.15
2019-05-25T20:38:49.827Z,14.16
2019-05-25T20:41:21.990Z,14.10
2019-05-25T20:43:54.144Z,14.06
2019-05-25T20:46:26.273Z,14.03
2019-05-25T20:48:58.380Z,13.97
2019-05-25T20:51:30.449Z,13.97
2019-05-25T20:54:02.527Z,13.92
2019-05-25T20:56:34.617Z,13.86
2019-05-25T20:59:06.618Z,13.82
2019-05-25T21:01:38.808Z,13.75
2019-05-25T21:04:10.952Z,13.73
2019-05-25T21:06:43.029Z,13.77
2019-05-25T21:09:15.079Z,13.80
2019-05-25T21:11:47.297Z,13.80
2019-05-25T21:14:19.399Z,13.84
2019-05-25T21:16:51.457Z,13.86
2019-05-25T21:19:23.534Z,13.82
2019-05-25T21:21:55.620Z,13.78
2019-05-25T21:24:27.793Z,13.80
2019-05-25T21:26:59.830Z,13.81
2019-05-25T21:29:31.899Z,13.74
2019-05-25T21:32:03.977Z,13.67
2019-05-25T21:34:36.133Z,13.71
2019-05-25T21:37:08.178Z,13.68
2019-05-25T21:39:40.284Z,13.70
2019-05-25T21:42:12.339Z,13.65
2019-05-25T21:44:44.403Z,13.59
2019-05-25T21:47:16.542Z,13.61
2019-05-25T21:49:48.643Z,13.54
2019-05-25T21:52:20.749Z,13.55
2019-05-25T21:54:52.769Z,13.57
2019-05-25T21:57:25.896Z,13.60
2019-05-25T21:59:58.142Z,13.60
2019-05-25T22:02:30.155Z,13.44
2019-05-25T22:05:02.206Z,13.34
2019-05-25T22:07:34.447Z,13.34
2019-05-25T22:10:06.966Z,13.29
2019-05-25T22:12:40.433Z,13.14
2019-05-25T22:15:13.340Z,13.28
2019-05-25T22:17:45.340Z,13.39
2019-05-25T22:20:17.948Z,13.42
2019-05-25T22:22:49.959Z,13.30
2019-05-25T22:25:22.033Z,13.23
2019-05-25T22:27:54.063Z,13.09
2019-05-25T22:30:26.165Z,13.07
2019-05-25T22:32:58.124Z,13.04
2019-05-25T22:35:30.136Z,13.10
2019-05-25T22:38:02.199Z,13.15
2019-05-25T22:40:34.203Z,13.18
2019-05-25T22:43:06.181Z,13.07
2019-05-25T22:45:38.231Z,13.15
2019-05-25T22:48:10.240Z,13.07
2019-05-25T22:50:42.417Z,12.97
2019-05-25T22:53:14.361Z,12.85
2019-05-25T22:55:46.369Z,12.85
2019-05-25T22:58:18.328Z,12.89
2019-05-25T23:00:50.310Z,12.91
2019-05-25T23:03:22.274Z,12.98
2019-05-25T23:05:54.339Z,12.99
2019-05-25T23:08:26.347Z,13.00
2019-05-25T23:10:58.457Z,13.04
2019-05-25T23:13:30.564Z,12.99
2019-05-25T23:16:02.603Z,13.04
2019-05-25T23:18:34.649Z,13.04
2019-05-25T23:21:06.656Z,13.02
2019-05-25T23:23:38.626Z,13.04
2019-05-25T23:26:10.624Z,12.99
2019-05-25T23:28:42.653Z,13.08
2019-05-25T23:31:14.682Z,13.07
2019-05-25T23:33:46.679Z,13.08
2019-05-25T23:36:18.659Z,13.10
2019-05-25T23:38:50.682Z,13.08
2019-05-25T23:41:22.737Z,13.01
2019-05-25T23:43:54.722Z,12.98
2019-05-25T23:46:26.702Z,12.94
2019-05-25T23:48:58.707Z,12.90
2019-05-25T23:51:30.677Z,12.88
2019-05-25T23:54:02.670Z,12.87
2019-05-25T23:56:34.668Z,12.76
2019-05-25T23:59:06.661Z,12.73
